createdAt,value
2019-02-10T00:00:42.978Z,0
2019-02-10T00:03:30.552Z,0
2019-02-10T00:06:31.031Z,0
2019-02-10T00:09:30.746Z,0
2019-02-10T00:12:31.644Z,0
2019-02-10T00:15:31.047Z,0
2019-02-10T00:18:30.712Z,0
2019-02-10T00:21:31.304Z,0
2019-02-10T00:24:30.864Z,0
2019-02-10T00:27:30.528Z,0
2019-02-10T00:30:30.971Z,0
2019-02-10T00:33:30.549Z,0
2019-02-10T00:36:35.937Z,0
2019-02-10T00:39:30.288Z,0
2019-02-10T00:42:30.853Z,0
2019-02-10T00:45:30.350Z,0
2019-02-10T00:48:30.748Z,0
2019-02-10T00:51:31.316Z,0
2019-02-10T00:54:30.905Z,0
2019-02-10T00:57:30.434Z,0
2019-02-10T01:00:31.264Z,0
2019-02-10T01:03:30.973Z,0
2019-02-10T01:06:30.431Z,0
2019-02-10T01:09:31.062Z,0
2019-02-10T01:12:30.565Z,0
2019-02-10T01:15:31.378Z,0
2019-02-10T01:18:31.124Z,0
2019-02-10T01:21:30.581Z,0
2019-02-10T01:24:31.243Z,0
2019-02-10T01:27:30.721Z,0
2019-02-10T01:30:31.244Z,0
2019-02-10T01:33:30.758Z,0
2019-02-10T01:36:31.261Z,0
2019-02-10T01:39:30.896Z,0
2019-02-10T01:42:30.323Z,0
2019-02-10T01:45:31.022Z,0
2019-02-10T01:48:30.439Z,0
2019-02-10T01:51:30.859Z,0
2019-02-10T01:54:30.588Z,0
2019-02-10T01:57:31.077Z,0
2019-02-10T02:00:30.496Z,0
2019-02-10T02:03:31.071Z,0
2019-02-10T02:06:30.622Z,0
2019-02-10T02:09:31.271Z,0
2019-02-10T02:12:30.669Z,0
2019-02-10T02:15:31.269Z,0
2019-02-10T02:18:30.952Z,0
2019-02-10T02:21:30.513Z,0
2019-02-10T02:24:30.965Z,0
2019-02-10T02:27:30.422Z,0
2019-02-10T02:30:30.910Z,0
2019-02-10T02:33:30.358Z,0
2019-02-10T02:36:30.863Z,0
2019-02-10T02:39:30.543Z,0
2019-02-10T02:42:31.220Z,0
2019-02-10T02:45:30.785Z,0
2019-02-10T02:48:30.425Z,0
2019-02-10T02:51:30.966Z,0
2019-02-10T02:54:30.442Z,0
2019-02-10T02:57:30.863Z,0
2019-02-10T03:00:30.391Z,0
2019-02-10T03:03:32.655Z,0
2019-02-10T03:06:50.551Z,0
2019-02-10T03:09:31.051Z,0
2019-02-10T03:12:30.544Z,0
2019-02-10T03:15:31.210Z,0
2019-02-10T03:18:30.884Z,0
2019-02-10T03:21:30.205Z,0
2019-02-10T03:24:30.661Z,0
2019-02-10T03:27:30.917Z,0
2019-02-10T03:30:30.215Z,0
2019-02-10T03:33:30.534Z,0
2019-02-10T03:36:30.866Z,0
2019-02-10T03:39:30.173Z,0
2019-02-10T03:42:30.519Z,0
2019-02-10T03:45:30.938Z,0
2019-02-10T03:48:30.197Z,0
2019-02-10T03:51:30.502Z,0
2019-02-10T03:54:30.985Z,0
2019-02-10T03:57:30.756Z,0
2019-02-10T04:00:31.235Z,0
2019-02-10T04:03:36.191Z,0
2019-02-10T04:06:30.642Z,0
2019-02-10T04:09:36.523Z,0
2019-02-10T04:12:31.105Z,0
2019-02-10T04:15:36.316Z,0
2019-02-10T04:18:32.489Z,0
2019-02-10T04:21:31.243Z,0
2019-02-10T04:24:31.032Z,0
2019-02-10T04:27:30.582Z,0
2019-02-10T04:30:31.159Z,0
2019-02-10T04:33:31.128Z,0
2019-02-10T04:36:30.689Z,0
2019-02-10T04:39:31.070Z,0
2019-02-10T04:42:30.524Z,0
2019-02-10T04:45:31.167Z,0
2019-02-10T04:48:30.577Z,0
2019-02-10T04:51:31.036Z,0
2019-02-10T04:54:30.503Z,0
2019-02-10T04:57:31.067Z,0
2019-02-10T05:00:30.608Z,0
2019-02-10T05:03:31.028Z,0
2019-02-10T05:06:30.569Z,0
2019-02-10T05:09:31.060Z,0
2019-02-10T05:12:30.525Z,0
2019-02-10T05:15:30.788Z,0
2019-02-10T05:18:30.352Z,0
2019-02-10T05:21:30.711Z,0
2019-02-10T05:24:31.095Z,0
2019-02-10T05:27:30.689Z,0
2019-02-10T05:30:31.238Z,0
2019-02-10T05:33:30.696Z,0
2019-02-10T05:36:31.305Z,0
2019-02-10T05:39:30.703Z,0
2019-02-10T05:42:31.153Z,0
2019-02-10T05:45:30.588Z,0
2019-02-10T05:48:31.021Z,0
2019-02-10T05:51:30.462Z,0
2019-02-10T05:54:31.167Z,0
2019-02-10T05:57:30.670Z,0
2019-02-10T06:00:31.867Z,0
2019-02-10T06:03:30.431Z,0
2019-02-10T06:06:31.031Z,0
2019-02-10T06:09:30.449Z,0
2019-02-10T06:12:31.179Z,0
2019-02-10T06:15:30.599Z,0
2019-02-10T06:18:31.159Z,0
2019-02-10T06:21:30.801Z,0
2019-02-10T06:24:30.235Z,0
2019-02-10T06:27:30.699Z,1
2019-02-10T06:30:32.750Z,2
2019-02-10T06:33:31.473Z,3
2019-02-10T06:36:32.273Z,6
2019-02-10T06:39:31.195Z,9
2019-02-10T06:42:30.703Z,12
2019-02-10T06:45:31.325Z,17
2019-02-10T06:48:30.738Z,22
2019-02-10T06:51:31.464Z,30
2019-02-10T06:54:31.291Z,55
2019-02-10T06:57:31.665Z,70
2019-02-10T07:00:47.532Z,59
2019-02-10T07:03:40.568Z,68
2019-02-10T07:06:31.542Z,68
2019-02-10T07:09:34.349Z,97
2019-02-10T07:13:04.577Z,118
2019-02-10T07:17:42.345Z,178
2019-02-10T07:20:41.775Z,233
2019-02-10T07:21:34.266Z,287
2019-02-10T07:24:47.045Z,294
2019-02-10T07:27:34.043Z,344
2019-02-10T07:30:44.032Z,398
2019-02-10T07:33:46.581Z,450
2019-02-10T07:36:46.619Z,485
2019-02-10T07:41:45.815Z,398
2019-02-10T07:42:43.544Z,448
2019-02-10T07:45:47.240Z,450
2019-02-10T07:48:39.871Z,528
2019-02-10T07:51:38.121Z,715
2019-02-10T07:54:44.850Z,833
2019-02-10T07:59:46.134Z,907
2019-02-10T08:00:48.944Z,1006
2019-02-10T08:04:47.995Z,949
2019-02-10T08:07:00.687Z,1159
2019-02-10T08:10:01.200Z,1128
2019-02-10T08:12:57.370Z,1217
2019-02-10T08:16:00.232Z,1449
2019-02-10T08:18:46.001Z,2003
2019-02-10T08:21:46.681Z,2246
2019-02-10T08:25:15.081Z,2468
2019-02-10T08:27:56.645Z,2292
2019-02-10T08:30:54.998Z,2198
2019-02-10T08:33:35.480Z,2171
2019-02-10T08:37:44.476Z,1672
2019-02-10T08:41:40.448Z,1618
2019-02-10T08:42:42.534Z,1308
2019-02-10T08:46:01.387Z,1525
2019-02-10T08:50:47.897Z,2168
2019-02-10T08:51:51.709Z,1628
2019-02-10T08:54:31.915Z,1556
2019-02-10T08:57:30.962Z,1742
2019-02-10T09:00:32.119Z,1369
2019-02-10T09:03:35.458Z,1178
2019-02-10T09:06:31.309Z,1237
2019-02-10T09:09:31.169Z,1009
2019-02-10T09:12:30.930Z,1285
2019-02-10T09:15:30.744Z,1145
2019-02-10T09:18:30.543Z,1355
2019-02-10T09:21:31.604Z,1178
2019-02-10T09:24:33.625Z,1418
2019-02-10T09:27:31.132Z,1270
2019-02-10T09:30:30.772Z,1400
2019-02-10T09:33:31.393Z,1431
2019-02-10T09:36:31.801Z,1198
2019-02-10T09:39:30.416Z,1499
2019-02-10T09:42:36.023Z,1352
2019-02-10T09:45:30.614Z,1116
2019-02-10T09:48:30.994Z,1068
2019-02-10T09:51:30.612Z,965
2019-02-10T09:54:31.360Z,888
2019-02-10T09:57:36.118Z,1182
2019-02-10T10:00:30.667Z,930
2019-02-10T10:03:31.364Z,1083
2019-02-10T10:06:30.991Z,1039
2019-02-10T10:09:35.405Z,966
2019-02-10T10:12:36.034Z,1070
2019-02-10T10:15:30.701Z,976
2019-02-10T10:18:30.471Z,1331
2019-02-10T10:21:31.084Z,1810
2019-02-10T10:24:30.804Z,1304
2019-02-10T10:27:30.492Z,1672
2019-02-10T10:30:31.065Z,1171
2019-02-10T10:33:31.839Z,1294
2019-02-10T10:36:30.661Z,2178
2019-02-10T10:39:31.236Z,1982
2019-02-10T10:42:30.877Z,2754
2019-02-10T10:45:30.585Z,2248
2019-02-10T10:48:31.065Z,2010
2019-02-10T10:51:30.745Z,2013
2019-02-10T10:54:31.293Z,2080
2019-02-10T10:57:31.612Z,1412
2019-02-10T11:00:31.235Z,2231
2019-02-10T11:03:38.082Z,1421
2019-02-10T11:06:30.756Z,1376
2019-02-10T11:09:38.206Z,1812
2019-02-10T11:12:30.823Z,2252
2019-02-10T11:15:30.411Z,1909
2019-02-10T11:18:31.113Z,2271
2019-02-10T11:21:30.627Z,2325
2019-02-10T11:24:31.303Z,2134
2019-02-10T11:27:31.101Z,2065
2019-02-10T11:30:30.791Z,1968
2019-02-10T11:33:30.335Z,2255
2019-02-10T11:36:30.943Z,2437
2019-02-10T11:39:30.544Z,1992
2019-02-10T11:42:31.018Z,2018
2019-02-10T11:45:30.846Z,2772
2019-02-10T11:48:30.408Z,3269
2019-02-10T11:51:30.986Z,3484
2019-02-10T11:54:30.494Z,2906
2019-02-10T11:57:31.014Z,3131
2019-02-10T12:00:30.742Z,2992
2019-02-10T12:03:31.382Z,2367
2019-02-10T12:06:31.079Z,2859
2019-02-10T12:09:30.752Z,3319
2019-02-10T12:12:31.355Z,3115
2019-02-10T12:15:30.885Z,2868
2019-02-10T12:18:30.488Z,2681
2019-02-10T12:21:31.087Z,3597
2019-02-10T12:24:30.697Z,2801
2019-02-10T12:27:31.230Z,3356
2019-02-10T12:30:30.933Z,2836
2019-02-10T12:33:30.435Z,2864
2019-02-10T12:36:31.032Z,1786
2019-02-10T12:39:30.792Z,2187
2019-02-10T12:42:31.243Z,3052
2019-02-10T12:45:30.846Z,1960
2019-02-10T12:48:30.350Z,2102
2019-02-10T12:51:31.021Z,1718
2019-02-10T12:54:30.524Z,2124
2019-02-10T12:57:31.185Z,1872
2019-02-10T13:00:30.877Z,1413
2019-02-10T13:03:30.541Z,1394
2019-02-10T13:06:31.222Z,1198
2019-02-10T13:09:30.782Z,1230
2019-02-10T13:12:31.687Z,1254
2019-02-10T13:15:31.482Z,1453
2019-02-10T13:18:30.988Z,1216
2019-02-10T13:21:30.508Z,1056
2019-02-10T13:24:31.245Z,1140
2019-02-10T13:27:30.831Z,1131
2019-02-10T13:30:30.377Z,1024
2019-02-10T13:33:31.110Z,1309
2019-02-10T13:36:30.643Z,1971
2019-02-10T13:39:31.522Z,1238
2019-02-10T13:42:31.123Z,1242
2019-02-10T13:45:30.794Z,2525
2019-02-10T13:48:35.431Z,4460
2019-02-10T13:51:31.054Z,2729
2019-02-10T13:54:30.545Z,3441
2019-02-10T13:57:31.694Z,860
2019-02-10T14:00:31.391Z,620
2019-02-10T14:03:31.331Z,668
2019-02-10T14:06:30.902Z,858
2019-02-10T14:09:30.456Z,1022
2019-02-10T14:12:31.493Z,1616
2019-02-10T14:15:31.212Z,2042
2019-02-10T14:18:31.042Z,2097
2019-02-10T14:21:30.639Z,1693
2019-02-10T14:24:41.795Z,1078
2019-02-10T14:27:30.411Z,931
2019-02-10T14:30:37.962Z,918
2019-02-10T14:33:38.490Z,908
2019-02-10T14:36:30.718Z,1310
2019-02-10T14:39:31.255Z,1406
2019-02-10T14:42:30.790Z,1671
2019-02-10T14:45:30.352Z,1818
2019-02-10T14:48:30.910Z,1741
2019-02-10T14:51:30.528Z,1688
2019-02-10T14:54:31.378Z,1437
2019-02-10T14:57:31.033Z,1492
2019-02-10T15:00:30.641Z,1518
2019-02-10T15:03:32.248Z,1401
2019-02-10T15:06:30.732Z,1604
2019-02-10T15:09:31.391Z,3024
2019-02-10T15:12:31.221Z,4262
2019-02-10T15:15:35.825Z,2253
2019-02-10T15:18:30.397Z,1798
2019-02-10T15:21:32.129Z,1761
2019-02-10T15:24:30.600Z,1690
2019-02-10T15:27:31.324Z,1663
2019-02-10T15:30:30.943Z,1847
2019-02-10T15:33:30.950Z,2978
2019-02-10T15:36:30.666Z,4082
2019-02-10T15:39:31.300Z,3707
2019-02-10T15:42:30.902Z,2966
2019-02-10T15:45:30.568Z,2333
2019-02-10T15:48:31.218Z,1462
2019-02-10T15:51:39.795Z,1410
2019-02-10T15:54:30.259Z,1166
2019-02-10T15:57:31.060Z,931
2019-02-10T16:00:30.585Z,720
2019-02-10T16:03:31.082Z,673
2019-02-10T16:06:30.654Z,524
2019-02-10T16:09:31.592Z,418
2019-02-10T16:12:31.300Z,325
2019-02-10T16:15:31.174Z,171
2019-02-10T16:18:30.891Z,116
2019-02-10T16:21:30.516Z,128
2019-02-10T16:24:31.067Z,117
2019-02-10T16:27:30.927Z,128
2019-02-10T16:30:30.736Z,113
2019-02-10T16:33:31.594Z,105
2019-02-10T16:36:31.238Z,81
2019-02-10T16:39:30.789Z,50
2019-02-10T16:42:30.383Z,38
2019-02-10T16:45:31.008Z,28
2019-02-10T16:48:30.801Z,18
2019-02-10T16:51:30.300Z,13
2019-02-10T16:54:30.834Z,11
2019-02-10T16:57:30.459Z,8
2019-02-10T17:00:31.079Z,5
2019-02-10T17:03:30.785Z,2
2019-02-10T17:06:30.639Z,1
2019-02-10T17:09:31.264Z,1
2019-02-10T17:12:30.698Z,0
2019-02-10T17:15:31.181Z,0
2019-02-10T17:18:30.914Z,0
2019-02-10T17:21:30.672Z,0
2019-02-10T17:24:31.399Z,0
2019-02-10T17:27:30.885Z,0
2019-02-10T17:30:30.587Z,0
2019-02-10T17:33:31.218Z,0
2019-02-10T17:36:30.834Z,0
2019-02-10T17:39:30.285Z,0
2019-02-10T17:42:30.977Z,0
2019-02-10T17:45:30.579Z,0
2019-02-10T17:48:32.294Z,0
2019-02-10T17:51:30.914Z,0
2019-02-10T17:54:30.391Z,0
2019-02-10T17:57:31.317Z,0
2019-02-10T18:00:34.597Z,0
2019-02-10T18:03:31.171Z,0
2019-02-10T18:06:30.819Z,0
2019-02-10T18:09:30.706Z,0
2019-02-10T18:12:30.975Z,0
2019-02-10T18:15:54.375Z,0
2019-02-10T18:18:47.990Z,0
2019-02-10T18:23:44.222Z,0
2019-02-10T18:24:42.466Z,0
2019-02-10T18:27:42.982Z,0
2019-02-10T18:30:39.229Z,0
2019-02-10T18:33:44.785Z,0
2019-02-10T18:37:45.232Z,0
2019-02-10T18:39:40.950Z,0
2019-02-10T18:42:47.671Z,0
2019-02-10T18:45:42.709Z,0
2019-02-10T18:50:42.159Z,0
2019-02-10T18:53:41.294Z,0
2019-02-10T18:54:39.523Z,0
2019-02-10T18:57:38.028Z,0
2019-02-10T19:01:51.521Z,0
2019-02-10T19:03:41.274Z,0
2019-02-10T19:06:38.240Z,0
2019-02-10T19:10:10.459Z,0
2019-02-10T19:13:44.437Z,0
2019-02-10T19:17:44.800Z,0
2019-02-10T19:18:39.957Z,0
2019-02-10T19:21:43.963Z,0
2019-02-10T19:26:42.760Z,0
2019-02-10T19:27:47.885Z,0
2019-02-10T19:30:42.606Z,0
2019-02-10T19:35:40.177Z,0
2019-02-10T19:37:10.510Z,0
2019-02-10T19:41:38.182Z,0
2019-02-10T19:42:46.323Z,0
2019-02-10T19:46:16.739Z,0
2019-02-10T19:48:39.340Z,0
2019-02-10T19:52:11.130Z,0
2019-02-10T19:54:51.299Z,0
2019-02-10T19:57:40.489Z,0
2019-02-10T20:00:43.659Z,0
2019-02-10T20:04:10.242Z,0
2019-02-10T20:06:52.373Z,0
2019-02-10T20:09:44.910Z,0
2019-02-10T20:12:51.442Z,0
2019-02-10T20:15:38.084Z,0
2019-02-10T20:18:43.581Z,0
2019-02-10T20:22:12.025Z,0
2019-02-10T20:26:42.033Z,0
2019-02-10T20:27:41.170Z,0
2019-02-10T20:32:40.004Z,0
2019-02-10T20:33:39.881Z,0
2019-02-10T20:36:56.847Z,0
2019-02-10T20:40:43.948Z,0
2019-02-10T20:43:47.915Z,0
2019-02-10T20:47:41.388Z,0
2019-02-10T20:48:47.763Z,0
2019-02-10T20:52:48.852Z,0
2019-02-10T20:54:52.272Z,0
2019-02-10T20:58:40.498Z,0
2019-02-10T21:00:40.039Z,0
2019-02-10T21:04:44.362Z,0
2019-02-10T21:06:41.428Z,0
2019-02-10T21:11:39.924Z,0
2019-02-10T21:12:54.674Z,0
2019-02-10T21:16:08.699Z,0
2019-02-10T21:18:39.392Z,0
2019-02-10T21:21:48.351Z,0
2019-02-10T21:24:39.561Z,0
2019-02-10T21:27:55.724Z,0
2019-02-10T21:30:41.619Z,0
2019-02-10T21:33:41.390Z,0
2019-02-10T21:36:47.885Z,0
2019-02-10T21:40:02.727Z,0
2019-02-10T21:42:36.433Z,0
2019-02-10T21:45:55.689Z,0
2019-02-10T21:48:35.947Z,0
2019-02-10T21:51:30.390Z,0
2019-02-10T21:54:30.906Z,0
2019-02-10T21:57:30.841Z,0
2019-02-10T22:00:30.493Z,0
2019-02-10T22:03:30.980Z,0
2019-02-10T22:06:32.017Z,0
2019-02-10T22:09:31.210Z,0
2019-02-10T22:12:36.938Z,0
2019-02-10T22:15:30.894Z,0
2019-02-10T22:18:30.590Z,0
2019-02-10T22:21:31.089Z,0
2019-02-10T22:24:30.745Z,0
2019-02-10T22:27:31.318Z,0
2019-02-10T22:30:30.806Z,0
2019-02-10T22:33:30.242Z,0
2019-02-10T22:36:30.865Z,0
2019-02-10T22:39:30.537Z,0
2019-02-10T22:42:31.079Z,0
2019-02-10T22:45:30.786Z,0
2019-02-10T22:48:31.208Z,0
2019-02-10T22:51:30.864Z,0
2019-02-10T22:54:30.469Z,0
2019-02-10T22:57:31.018Z,0
2019-02-10T23:01:06.657Z,0
2019-02-10T23:03:31.156Z,0
2019-02-10T23:06:30.651Z,0
2019-02-10T23:09:31.346Z,0
2019-02-10T23:12:30.902Z,0
2019-02-10T23:15:30.411Z,0
2019-02-10T23:18:30.870Z,0
2019-02-10T23:21:30.586Z,0
2019-02-10T23:24:31.150Z,0
2019-02-10T23:27:30.710Z,0
2019-02-10T23:30:31.279Z,0
2019-02-10T23:33:30.726Z,0
2019-02-10T23:36:31.328Z,0
2019-02-10T23:39:31.100Z,0
2019-02-10T23:42:30.547Z,0
2019-02-10T23:45:31.033Z,0
2019-02-10T23:48:30.792Z,0
2019-02-10T23:51:30.396Z,0
2019-02-10T23:54:30.937Z,0
2019-02-10T23:57:30.549Z,0
